Time;durP1;ratioP1;P1;durP2;ratioP2;P2;SDS_P1;SDS_P2;PMS_P1;PMS_P2;Temp;Humidity;BMP_temperature;BMP_pressure;BME280_temperature;BME280_humidity;BME280_pressure;Samples;Min_cycle;Max_cycle;Signal;HPM_P1;HPM_P2
2023/10/22 00:00:12;;;;;;;5.35;1.95;;;11.40;99.90;;;;;;5101908;28;20015;-75
2023/10/22 00:02:39;;;;;;;6.65;2.20;;;11.40;99.90;;;;;;5101782;28;20024;-77
2023/10/22 00:05:05;;;;;;;5.25;2.10;;;11.40;99.90;;;;;;5101990;28;20028;-76
2023/10/22 00:07:32;;;;;;;8.07;2.45;;;11.30;99.90;;;;;;5101776;28;20032;-79
2023/10/22 00:09:58;;;;;;;6.25;2.38;;;11.40;99.90;;;;;;5100068;28;20060;-76
2023/10/22 00:12:24;;;;;;;7.78;2.47;;;11.30;99.90;;;;;;5100724;28;20913;-75
2023/10/22 00:14:50;;;;;;;7.75;2.65;;;11.30;99.90;;;;;;5100557;28;20020;-82
2023/10/22 00:17:15;;;;;;;7.40;2.10;;;11.20;99.90;;;;;;5101880;28;20020;-76
2023/10/22 00:19:41;;;;;;;5.55;2.03;;;11.20;99.90;;;;;;5101614;28;20044;-76
2023/10/22 00:22:08;;;;;;;8.07;2.03;;;11.10;99.90;;;;;;5101593;28;20024;-77
2023/10/22 00:24:34;;;;;;;7.53;2.03;;;11.20;99.90;;;;;;5100414;28;20036;-77
2023/10/22 00:27:00;;;;;;;6.05;2.78;;;11.10;99.90;;;;;;5101768;28;20031;-77
2023/10/22 00:29:27;;;;;;;4.78;1.98;;;11.10;99.90;;;;;;5100220;28;20031;-77
2023/10/22 00:31:53;;;;;;;15.07;2.55;;;11.10;99.90;;;;;;5100357;28;20016;-78
2023/10/22 00:34:18;;;;;;;5.28;1.85;;;11.10;99.90;;;;;;5100013;28;20020;-77
2023/10/22 00:36:44;;;;;;;7.85;2.08;;;11.00;99.90;;;;;;5101368;28;20016;-79
2023/10/22 00:39:10;;;;;;;6.40;2.05;;;11.00;99.90;;;;;;5099796;28;20035;-77
2023/10/22 00:41:36;;;;;;;6.80;1.80;;;11.00;99.90;;;;;;5100248;28;20042;-77
2023/10/22 00:44:01;;;;;;;8.93;2.22;;;10.90;99.90;;;;;;5101094;28;20119;-78
2023/10/22 00:46:27;;;;;;;5.75;2.38;;;10.90;99.90;;;;;;5101697;28;20345;-76
2023/10/22 00:48:55;;;;;;;4.97;2.05;;;10.80;99.90;;;;;;5099929;28;20552;-77
2023/10/22 00:51:22;;;;;;;7.20;2.08;;;10.80;99.90;;;;;;5099873;28;20392;-82
2023/10/22 00:53:51;;;;;;;6.60;2.60;;;10.70;99.90;;;;;;5101128;28;20044;-77
2023/10/22 00:56:17;;;;;;;5.47;2.03;;;10.60;99.90;;;;;;5099840;28;20059;-76
2023/10/22 00:58:43;;;;;;;5.80;2.03;;;10.50;99.90;;;;;;5100116;28;20020;-77
2023/10/22 01:01:10;;;;;;;8.10;2.35;;;10.50;99.90;;;;;;5100127;28;20024;-76
2023/10/22 01:03:36;;;;;;;7.00;2.28;;;10.50;99.90;;;;;;5099818;28;20055;-79
2023/10/22 01:06:04;;;;;;;7.75;2.40;;;10.50;99.90;;;;;;5100546;28;20016;-76
2023/10/22 01:08:32;;;;;;;9.35;2.90;;;10.40;99.90;;;;;;5099445;28;20097;-77
2023/10/22 01:11:10;;;;;;;15.45;2.78;;;10.40;99.90;;;;;;5099081;28;20024;-78
2023/10/22 01:13:38;;;;;;;6.28;1.95;;;10.30;99.90;;;;;;5100780;28;20115;-77
2023/10/22 01:16:05;;;;;;;5.55;1.95;;;10.30;99.90;;;;;;5099561;28;20043;-74
2023/10/22 01:18:30;;;;;;;9.20;2.00;;;10.20;99.90;;;;;;5098797;28;20130;-74
2023/10/22 01:20:56;;;;;;;8.10;2.20;;;10.20;99.90;;;;;;5099552;28;20066;-75
2023/10/22 01:23:22;;;;;;;7.22;1.92;;;10.20;99.90;;;;;;5099811;28;20562;-78
2023/10/22 01:25:49;;;;;;;6.85;1.80;;;10.10;99.90;;;;;;5100469;28;20024;-76
2023/10/22 01:28:15;;;;;;;6.90;1.90;;;10.10;99.90;;;;;;5101694;28;20035;-79
2023/10/22 01:30:41;;;;;;;8.35;2.00;;;10.20;99.90;;;;;;5101200;28;20064;-78
2023/10/22 01:33:07;;;;;;;4.72;1.77;;;10.20;99.90;;;;;;5100770;28;20031;-74
2023/10/22 01:35:33;;;;;;;6.53;2.25;;;10.20;99.90;;;;;;5099489;28;20028;-78
2023/10/22 01:37:58;;;;;;;6.75;1.80;;;10.10;99.90;;;;;;5097632;28;20032;-77
2023/10/22 01:40:24;;;;;;;8.30;2.00;;;10.00;99.90;;;;;;5099285;28;20028;-76
2023/10/22 01:42:51;;;;;;;3.05;1.73;;;10.00;99.90;;;;;;5101088;28;20043;-77
2023/10/22 01:45:17;;;;;;;4.75;1.85;;;10.00;99.90;;;;;;5099718;28;20032;-78
2023/10/22 01:47:43;;;;;;;3.22;1.77;;;9.90;99.90;;;;;;5099909;28;20096;-80
2023/10/22 01:50:09;;;;;;;5.47;2.13;;;9.90;99.90;;;;;;5100829;28;20024;-76
2023/10/22 01:52:34;;;;;;;6.78;1.80;;;9.90;99.90;;;;;;5100238;28;20016;-79
2023/10/22 01:55:00;;;;;;;10.00;1.90;;;9.80;99.90;;;;;;5098676;28;20054;-75
2023/10/22 01:57:27;;;;;;;6.57;2.20;;;9.80;99.90;;;;;;5100364;28;20044;-77
2023/10/22 01:59:52;;;;;;;6.63;1.70;;;9.80;99.90;;;;;;5099296;28;20094;-76
2023/10/22 02:02:18;;;;;;;6.30;1.90;;;9.80;99.90;;;;;;5099187;28;20069;-76
2023/10/22 02:04:44;;;;;;;4.95;1.85;;;9.80;99.90;;;;;;5099663;28;20036;-77
2023/10/22 02:07:10;;;;;;;7.30;1.75;;;9.70;99.90;;;;;;5104168;28;20027;-77
2023/10/22 02:09:36;;;;;;;5.85;1.85;;;9.80;99.90;;;;;;5104294;28;20480;-76
2023/10/22 02:12:02;;;;;;;11.00;2.10;;;9.70;99.90;;;;;;5102808;28;20035;-77
2023/10/22 02:14:28;;;;;;;6.00;1.98;;;9.70;99.90;;;;;;5102645;28;20032;-76
2023/10/22 02:16:53;;;;;;;9.73;2.08;;;9.80;99.90;;;;;;5104092;28;20083;-77
2023/10/22 02:19:19;;;;;;;7.35;1.73;;;9.80;99.90;;;;;;5103918;28;20100;-77
2023/10/22 02:21:46;;;;;;;8.45;2.15;;;9.80;99.90;;;;;;5103602;28;20028;-77
2023/10/22 02:24:12;;;;;;;6.43;1.75;;;9.80;99.90;;;;;;5102104;28;20682;-76
2023/10/22 02:26:37;;;;;;;9.98;2.47;;;9.90;99.90;;;;;;5102834;28;20032;-76
2023/10/22 02:29:03;;;;;;;6.80;1.73;;;9.90;99.90;;;;;;5102084;28;20031;-75
2023/10/22 02:31:28;;;;;;;9.02;1.60;;;9.90;99.90;;;;;;5103510;28;20028;-76
2023/10/22 02:34:02;;;;;;;3.92;1.60;;;10.00;99.90;;;;;;5103759;28;20016;-77
2023/10/22 02:36:29;;;;;;;7.32;1.67;;;10.00;99.90;;;;;;5101875;28;20059;-76
2023/10/22 02:38:56;;;;;;;4.35;1.80;;;10.00;99.90;;;;;;5102091;28;20044;-76
2023/10/22 02:41:22;;;;;;;4.45;1.90;;;10.00;99.90;;;;;;5101930;28;20052;-78
2023/10/22 02:43:47;;;;;;;6.35;1.50;;;10.00;99.90;;;;;;5103355;28;20040;-77
2023/10/22 02:46:15;;;;;;;8.57;1.90;;;9.90;99.90;;;;;;5103792;28;20030;-79
2023/10/22 02:48:41;;;;;;;6.47;1.50;;;10.00;99.90;;;;;;5103414;28;20024;-77
2023/10/22 02:51:07;;;;;;;6.90;1.70;;;9.90;99.90;;;;;;5101885;28;20020;-76
2023/10/22 02:53:32;;;;;;;7.18;1.70;;;9.90;99.90;;;;;;5102015;28;20079;-78
2023/10/22 02:56:02;;;;;;;6.70;1.58;;;9.90;99.90;;;;;;5102770;28;20079;-76
2023/10/22 02:58:29;;;;;;;7.80;1.60;;;9.90;99.90;;;;;;5101415;28;20499;-77
2023/10/22 03:00:55;;;;;;;4.35;1.52;;;9.90;99.90;;;;;;5103180;28;20024;-79
2023/10/22 03:03:22;;;;;;;3.25;1.38;;;9.90;99.90;;;;;;5103176;28;20484;-78
2023/10/22 03:05:47;;;;;;;8.48;1.52;;;9.90;99.90;;;;;;5101692;28;20149;-77
2023/10/22 03:08:13;;;;;;;6.95;1.55;;;9.80;99.90;;;;;;5103220;28;20016;-78
2023/10/22 03:10:38;;;;;;;6.22;1.35;;;9.90;99.90;;;;;;5101165;28;20032;-81
2023/10/22 03:13:04;;;;;;;7.25;1.40;;;10.00;99.90;;;;;;5101132;28;20016;-78
2023/10/22 03:15:30;;;;;;;6.07;1.30;;;10.00;99.90;;;;;;5102979;28;20119;-79
2023/10/22 03:17:56;;;;;;;7.15;1.23;;;9.90;99.90;;;;;;5102633;28;20028;-78
2023/10/22 03:20:25;;;;;;;7.72;1.75;;;9.90;99.90;;;;;;5101444;28;20104;-76
2023/10/22 03:22:51;;;;;;;6.93;1.42;;;9.80;99.90;;;;;;5101430;28;20039;-78
2023/10/22 03:25:18;;;;;;;5.22;1.45;;;9.90;99.90;;;;;;5101101;28;20100;-78
2023/10/22 03:27:44;;;;;;;7.22;1.65;;;9.80;99.90;;;;;;5101457;28;20668;-78
2023/10/22 03:30:13;;;;;;;6.78;1.55;;;9.90;99.90;;;;;;5101463;28;20035;-77
2023/10/22 03:32:39;;;;;;;5.95;1.63;;;9.90;99.90;;;;;;5102204;28;20083;-78
2023/10/22 03:35:06;;;;;;;9.88;2.00;;;9.80;99.90;;;;;;5102000;28;20024;-77
2023/10/22 03:37:32;;;;;;;6.25;1.50;;;9.90;99.90;;;;;;5101491;28;20035;-79
2023/10/22 03:39:57;;;;;;;7.82;2.03;;;9.90;99.90;;;;;;5101830;28;20024;-77
2023/10/22 03:42:23;;;;;;;6.40;1.73;;;10.00;99.90;;;;;;5102659;28;20032;-76
2023/10/22 03:44:48;;;;;;;6.90;1.65;;;9.90;99.90;;;;;;5102266;28;20103;-79
2023/10/22 03:47:14;;;;;;;7.80;1.42;;;9.90;99.90;;;;;;5102557;28;20028;-77
2023/10/22 03:49:40;;;;;;;5.78;1.50;;;9.90;99.90;;;;;;5102439;28;20482;-76
2023/10/22 03:52:05;;;;;;;6.18;1.60;;;9.90;99.90;;;;;;5102314;28;20505;-78
2023/10/22 03:54:31;;;;;;;5.72;1.67;;;9.90;99.90;;;;;;5100644;28;20350;-77
2023/10/22 03:56:57;;;;;;;8.48;2.25;;;9.80;99.90;;;;;;5101403;28;20028;-76
2023/10/22 03:59:22;;;;;;;4.88;1.60;;;9.90;99.90;;;;;;5100141;28;20059;-77
2023/10/22 04:01:48;;;;;;;5.80;1.40;;;9.90;99.90;;;;;;5100943;28;20473;-76
2023/10/22 04:04:14;;;;;;;10.25;1.80;;;9.90;99.90;;;;;;5101085;28;20042;-78
2023/10/22 04:06:39;;;;;;;4.90;1.48;;;10.00;99.90;;;;;;5101814;28;20012;-77
2023/10/22 04:09:05;;;;;;;7.80;1.65;;;9.90;99.90;;;;;;5100408;28;20035;-77
2023/10/22 04:11:30;;;;;;;5.32;1.40;;;9.80;99.90;;;;;;5102072;28;20096;-77
2023/10/22 04:13:56;;;;;;;5.65;1.55;;;9.90;99.90;;;;;;5101256;28;20024;-77
2023/10/22 04:16:21;;;;;;;9.32;1.77;;;9.90;99.90;;;;;;5099904;28;20036;-76
2023/10/22 04:18:47;;;;;;;7.88;1.80;;;10.00;99.90;;;;;;5098641;28;20028;-76
2023/10/22 04:21:16;;;;;;;5.70;1.63;;;9.90;99.90;;;;;;5098762;28;20048;-77
2023/10/22 04:23:42;;;;;;;9.13;1.65;;;9.90;99.90;;;;;;5099176;28;20036;-77
2023/10/22 04:26:14;;;;;;;9.57;1.58;;;9.90;99.90;;;;;;5099346;28;20055;-78
2023/10/22 04:28:42;;;;;;;6.82;1.48;;;9.90;99.90;;;;;;5100566;28;20492;-79
2023/10/22 04:31:09;;;;;;;2.58;1.15;;;9.90;99.90;;;;;;5101208;28;20050;-78
2023/10/22 04:33:35;;;;;;;5.28;1.50;;;9.90;99.90;;;;;;5101687;28;20047;-79
2023/10/22 04:36:01;;;;;;;6.00;1.80;;;9.90;99.90;;;;;;5101237;28;20095;-76
2023/10/22 04:38:31;;;;;;;4.78;1.63;;;9.90;99.90;;;;;;5100905;28;20020;-79
2023/10/22 04:41:05;;;;;;;6.30;1.52;;;9.90;99.90;;;;;;5101103;28;20024;-80
2023/10/22 04:43:33;;;;;;;5.38;1.77;;;9.90;99.90;;;;;;5101004;28;20019;-79
2023/10/22 04:46:00;;;;;;;5.78;1.60;;;9.90;99.90;;;;;;5099475;28;20074;-80
2023/10/22 04:48:26;;;;;;;7.03;1.50;;;9.90;99.90;;;;;;5101420;28;20511;-77
2023/10/22 04:50:52;;;;;;;5.75;1.50;;;9.90;99.90;;;;;;5099250;28;20028;-76
2023/10/22 04:53:22;;;;;;;3.38;1.20;;;9.90;99.90;;;;;;5101637;28;20020;-78
2023/10/22 04:55:58;;;;;;;6.80;1.40;;;9.90;99.90;;;;;;5100533;28;20075;-76
2023/10/22 04:58:24;;;;;;;5.95;1.73;;;9.90;99.90;;;;;;5099704;28;20144;-76
2023/10/22 05:00:51;;;;;;;4.30;1.35;;;9.90;99.90;;;;;;5101357;28;20024;-77
2023/10/22 05:03:17;;;;;;;6.05;1.42;;;9.90;99.90;;;;;;5101044;28;20023;-78
2023/10/22 05:05:42;;;;;;;5.28;1.38;;;9.90;99.90;;;;;;5100799;28;20032;-72
2023/10/22 05:08:09;;;;;;;5.10;1.27;;;9.90;99.90;;;;;;5099218;28;20150;-74
2023/10/22 05:10:38;;;;;;;5.68;1.38;;;10.00;99.90;;;;;;5100657;28;20043;-74
2023/10/22 05:13:08;;;;;;;7.80;1.65;;;10.00;99.90;;;;;;5100489;28;20026;-75
2023/10/22 05:15:34;;;;;;;5.40;1.40;;;10.00;99.90;;;;;;5099521;28;20017;-74
2023/10/22 05:18:08;;;;;;;6.13;1.40;;;10.00;99.90;;;;;;5100174;28;20080;-74
2023/10/22 05:20:34;;;;;;;6.65;1.52;;;10.10;99.90;;;;;;5099405;28;20069;-72
2023/10/22 05:23:03;;;;;;;8.45;1.35;;;10.10;99.90;;;;;;5098212;28;20115;-74
2023/10/22 05:25:29;;;;;;;4.35;1.30;;;10.20;99.90;;;;;;5098539;28;20044;-73
2023/10/22 05:27:54;;;;;;;8.38;1.42;;;10.20;99.90;;;;;;5100832;28;20019;-74
2023/10/22 05:30:20;;;;;;;3.67;1.25;;;10.20;99.90;;;;;;5099401;28;20173;-74
2023/10/22 05:32:46;;;;;;;4.57;1.27;;;10.30;99.90;;;;;;5100664;28;20025;-73
2023/10/22 05:35:11;;;;;;;7.35;1.30;;;10.30;99.90;;;;;;5098609;28;20039;-74
2023/10/22 05:37:41;;;;;;;7.68;1.40;;;10.40;99.90;;;;;;5099578;28;20052;-76
2023/10/22 05:40:09;;;;;;;6.50;1.23;;;10.30;99.90;;;;;;5100009;28;20095;-73
2023/10/22 05:42:34;;;;;;;4.55;1.20;;;10.40;99.90;;;;;;5102251;28;20020;-71
2023/10/22 05:45:00;;;;;;;7.22;1.35;;;10.40;99.90;;;;;;5102786;28;20032;-75
2023/10/22 05:47:29;;;;;;;8.95;1.65;;;10.40;99.90;;;;;;5103110;28;20090;-73
2023/10/22 05:49:55;;;;;;;4.90;1.10;;;10.40;99.90;;;;;;5103584;28;20061;-76
2023/10/22 05:52:21;;;;;;;6.80;1.13;;;10.40;99.90;;;;;;5104560;28;20103;-75
2023/10/22 05:54:46;;;;;;;8.55;1.60;;;10.40;99.90;;;;;;5103546;28;20066;-74
2023/10/22 05:57:12;;;;;;;9.05;1.65;;;10.40;99.90;;;;;;5102377;28;20468;-74
2023/10/22 05:59:38;;;;;;;7.00;1.50;;;10.50;99.90;;;;;;5100700;28;20429;-75
2023/10/22 06:02:04;;;;;;;7.05;1.35;;;10.50;99.90;;;;;;5102819;28;20046;-73
2023/10/22 06:04:45;;;;;;;3.42;1.38;;;10.50;99.90;;;;;;5102923;28;20028;-73
2023/10/22 06:07:11;;;;;;;8.20;1.50;;;10.50;99.90;;;;;;5100693;28;20115;-74
2023/10/22 06:09:37;;;;;;;7.22;1.48;;;10.50;99.90;;;;;;5102325;28;20048;-73
2023/10/22 06:12:03;;;;;;;9.38;1.52;;;10.50;99.90;;;;;;5103506;28;20020;-74
2023/10/22 06:14:28;;;;;;;2.90;1.05;;;10.50;99.90;;;;;;5103315;28;20027;-73
2023/10/22 06:16:54;;;;;;;4.43;1.02;;;10.50;99.90;;;;;;5104232;28;20391;-73
2023/10/22 06:19:20;;;;;;;7.43;1.50;;;10.50;99.90;;;;;;5102215;28;20039;-73
2023/10/22 06:21:46;;;;;;;8.35;1.60;;;10.60;99.90;;;;;;5103356;28;20031;-73
2023/10/22 06:24:12;;;;;;;5.35;0.95;;;10.60;99.90;;;;;;5102314;28;20114;-74
2023/10/22 06:26:37;;;;;;;3.55;1.20;;;10.60;99.90;;;;;;5103708;28;20091;-74
2023/10/22 06:29:03;;;;;;;4.45;1.13;;;10.60;99.90;;;;;;5103582;28;20110;-75
2023/10/22 06:31:32;;;;;;;5.00;1.10;;;10.60;99.90;;;;;;5103874;28;20024;-75
2023/10/22 06:33:58;;;;;;;3.95;1.10;;;10.80;99.90;;;;;;5103192;28;20084;-72
2023/10/22 06:36:24;;;;;;;6.63;1.13;;;10.70;99.90;;;;;;5104043;28;20028;-75
2023/10/22 06:38:50;;;;;;;5.45;1.13;;;10.70;99.90;;;;;;5102225;28;20028;-74
2023/10/22 06:41:26;;;;;;;4.20;1.25;;;10.80;99.90;;;;;;5102142;28;20046;-72
2023/10/22 06:43:53;;;;;;;5.93;1.10;;;10.90;99.90;;;;;;5102415;28;20190;-74
2023/10/22 06:46:20;;;;;;;2.67;1.08;;;10.90;99.90;;;;;;5102067;28;20040;-72
2023/10/22 06:48:47;;;;;;;5.13;0.90;;;11.00;99.90;;;;;;5103112;28;20358;-69
2023/10/22 06:51:17;;;;;;;4.20;1.10;;;11.00;99.90;;;;;;5101624;28;20108;-74
2023/10/22 06:53:44;;;;;;;3.55;1.00;;;11.10;99.90;;;;;;5102851;28;20107;-71
2023/10/22 06:56:11;;;;;;;5.18;0.88;;;11.10;99.90;;;;;;5101651;28;20051;-70
2023/10/22 06:58:37;;;;;;;10.32;1.77;;;11.20;99.90;;;;;;5102821;28;20563;-73
2023/10/22 07:01:07;;;;;;;4.30;1.13;;;11.30;99.90;;;;;;5102983;28;20056;-71
2023/10/22 07:03:35;;;;;;;4.53;0.93;;;11.30;99.90;;;;;;5102798;28;20059;-72
2023/10/22 07:06:00;;;;;;;3.92;1.02;;;11.40;99.90;;;;;;5102918;28;20023;-71
2023/10/22 07:08:27;;;;;;;3.70;0.88;;;11.50;99.90;;;;;;5102702;28;20020;-73
2023/10/22 07:10:53;;;;;;;3.90;0.90;;;11.50;99.90;;;;;;5102609;28;20036;-74
2023/10/22 07:13:20;;;;;;;3.45;0.82;;;11.60;99.90;;;;;;5103417;28;20028;-74
2023/10/22 07:15:48;;;;;;;5.03;1.95;;;11.50;99.90;;;;;;5101024;28;20077;-73
2023/10/22 07:18:14;;;;;;;3.08;1.20;;;11.70;99.90;;;;;;5099648;28;20017;-70
2023/10/22 07:20:40;;;;;;;4.60;1.33;;;11.70;99.90;;;;;;5102378;28;20065;-71
2023/10/22 07:23:06;;;;;;;4.57;1.20;;;11.80;99.90;;;;;;5102417;28;20079;-75
2023/10/22 07:25:33;;;;;;;3.72;1.02;;;11.80;99.90;;;;;;5102880;28;20103;-71
2023/10/22 07:27:59;;;;;;;5.70;1.00;;;11.90;99.90;;;;;;5102625;28;20027;-72
2023/10/22 07:30:31;;;;;;;2.88;0.98;;;11.90;99.90;;;;;;5102353;28;20020;-76
2023/10/22 07:32:57;;;;;;;2.65;1.20;;;11.90;99.90;;;;;;5101378;28;20050;-74
2023/10/22 07:35:22;;;;;;;5.40;1.30;;;11.90;99.90;;;;;;5099168;28;20047;-72
2023/10/22 07:37:48;;;;;;;3.45;1.30;;;11.90;99.90;;;;;;5099464;28;20027;-74
2023/10/22 07:40:15;;;;;;;5.25;1.50;;;12.00;99.90;;;;;;5100533;28;20032;-72
2023/10/22 07:42:41;;;;;;;6.45;1.33;;;12.00;99.90;;;;;;5102975;28;20034;-72
2023/10/22 07:45:08;;;;;;;8.88;2.53;;;12.10;99.90;;;;;;5101035;28;20098;-76
2023/10/22 07:47:35;;;;;;;5.93;2.13;;;12.00;99.90;;;;;;5099931;28;20024;-81
2023/10/22 07:50:01;;;;;;;4.90;1.92;;;12.00;99.90;;;;;;5102329;28;20017;-71
2023/10/22 07:52:27;;;;;;;7.15;1.65;;;12.10;99.90;;;;;;5099746;28;20157;-75
2023/10/22 07:54:52;;;;;;;9.88;1.92;;;12.00;99.90;;;;;;5101220;28;20036;-72
2023/10/22 07:57:19;;;;;;;4.95;2.13;;;12.10;99.90;;;;;;5102302;28;20038;-71
2023/10/22 07:59:45;;;;;;;3.30;1.67;;;12.00;99.90;;;;;;5101517;28;20020;-71
2023/10/22 08:02:10;;;;;;;4.10;1.60;;;12.00;99.90;;;;;;5099672;28;20038;-74
2023/10/22 08:04:37;;;;;;;4.93;1.80;;;11.90;99.90;;;;;;5099602;28;20035;-74
2023/10/22 08:07:04;;;;;;;5.05;1.80;;;11.90;99.90;;;;;;5099781;28;20020;-74
2023/10/22 08:09:30;;;;;;;7.38;1.98;;;11.80;99.90;;;;;;5100420;28;20500;-75
2023/10/22 08:11:55;;;;;;;4.50;2.85;;;11.70;99.90;;;;;;5101544;28;20016;-69
2023/10/22 08:14:25;;;;;;;6.68;2.70;;;11.70;99.90;;;;;;5101811;28;20027;-75
2023/10/22 08:16:50;;;;;;;5.75;2.70;;;11.60;99.90;;;;;;5102030;28;20024;-73
2023/10/22 08:19:16;;;;;;;11.50;4.57;;;11.60;99.90;;;;;;5098320;28;20074;-73
2023/10/22 08:21:42;;;;;;;8.68;3.88;;;11.50;99.90;;;;;;5101415;28;20031;-74
2023/10/22 08:24:08;;;;;;;6.72;3.30;;;11.50;99.90;;;;;;5101689;28;20062;-75
2023/10/22 08:26:33;;;;;;;12.98;3.20;;;11.40;99.90;;;;;;5101829;28;20068;-73
2023/10/22 08:28:59;;;;;;;10.38;2.90;;;11.30;99.90;;;;;;5100026;28;20031;-73
2023/10/22 08:31:25;;;;;;;11.27;3.50;;;11.40;99.90;;;;;;5101744;28;20099;-73
2023/10/22 08:33:50;;;;;;;6.55;3.15;;;11.40;99.90;;;;;;5100307;28;20031;-75
2023/10/22 08:36:16;;;;;;;8.30;3.70;;;11.40;99.90;;;;;;5101260;28;20126;-77
2023/10/22 08:38:43;;;;;;;14.38;4.03;;;11.40;99.90;;;;;;5098783;28;20028;-76
2023/10/22 08:41:21;;;;;;;5.75;3.53;;;11.40;99.90;;;;;;5101728;28;20020;-78
2023/10/22 08:43:48;;;;;;;13.38;4.07;;;11.40;99.90;;;;;;5100007;28;20035;-72
2023/10/22 08:46:14;;;;;;;9.98;3.75;;;11.40;99.90;;;;;;5100179;28;20024;-76
2023/10/22 08:48:40;;;;;;;7.35;4.43;;;11.40;99.90;;;;;;5099701;28;20162;-74
2023/10/22 08:51:08;;;;;;;11.07;4.18;;;11.40;99.90;;;;;;5101400;28;20016;-74
2023/10/22 08:53:33;;;;;;;13.82;6.13;;;11.40;99.90;;;;;;5097220;28;20099;-75
2023/10/22 08:56:01;;;;;;;8.57;4.47;;;11.50;99.90;;;;;;5100575;28;20140;-74
2023/10/22 08:58:27;;;;;;;5.30;3.58;;;11.50;99.90;;;;;;5098442;28;20066;-73
2023/10/22 09:00:53;;;;;;;5.93;3.83;;;11.50;99.90;;;;;;5101371;28;20016;-73
2023/10/22 09:03:20;;;;;;;5.63;3.28;;;11.50;99.90;;;;;;5101015;28;20027;-74
2023/10/22 09:05:46;;;;;;;3.83;2.25;;;11.60;99.90;;;;;;5101454;28;20029;-73
2023/10/22 09:08:13;;;;;;;3.67;2.65;;;11.60;99.90;;;;;;5101696;28;20028;-71
2023/10/22 09:10:38;;;;;;;6.07;3.50;;;11.70;99.90;;;;;;5100030;28;20088;-70
2023/10/22 09:13:07;;;;;;;6.75;3.10;;;11.70;99.90;;;;;;5101738;28;20061;-74
2023/10/22 09:15:40;;;;;;;4.25;2.50;;;11.70;99.90;;;;;;5103307;28;20024;-74
2023/10/22 09:18:06;;;;;;;6.32;2.63;;;11.70;99.90;;;;;;5103552;28;20111;-71
2023/10/22 09:20:35;;;;;;;4.90;3.13;;;11.60;99.90;;;;;;5105217;28;20031;-74
2023/10/22 09:23:23;;;;;;;4.97;2.60;;;11.70;99.90;;;;;;5104724;28;20022;-76
2023/10/22 09:25:55;;;;;;;4.57;3.10;;;11.70;99.90;;;;;;5103400;28;20080;-72
2023/10/22 09:28:25;;;;;;;5.10;2.78;;;11.70;99.90;;;;;;5104819;28;20027;-74
2023/10/22 09:30:56;;;;;;;3.97;2.63;;;11.70;99.90;;;;;;5103512;28;20020;-75
2023/10/22 09:33:37;;;;;;;4.97;3.00;;;11.70;99.90;;;;;;5105081;28;20381;-73
2023/10/22 09:36:05;;;;;;;6.80;2.88;;;11.70;99.90;;;;;;5104741;28;20095;-74
2023/10/22 09:38:50;;;;;;;4.28;2.17;;;11.70;99.90;;;;;;5102652;28;20086;-75
2023/10/22 09:41:29;;;;;;;6.85;3.10;;;11.80;99.90;;;;;;5103563;28;20032;-75
2023/10/22 09:44:02;;;;;;;6.25;3.30;;;11.70;99.90;;;;;;5104421;28;20031;-74
2023/10/22 09:46:33;;;;;;;8.93;3.85;;;11.80;99.90;;;;;;5104637;28;20024;-75
2023/10/22 09:49:00;;;;;;;9.20;3.38;;;11.90;99.90;;;;;;5103216;28;20028;-73
2023/10/22 09:51:35;;;;;;;8.18;3.92;;;12.00;99.90;;;;;;5104658;28;20041;-73
2023/10/22 09:54:05;;;;;;;9.75;3.80;;;12.00;99.90;;;;;;5103282;28;20028;-73
2023/10/22 09:56:35;;;;;;;7.25;3.75;;;12.20;99.90;;;;;;5104497;28;20728;-71
2023/10/22 09:59:10;;;;;;;9.60;4.57;;;12.30;99.90;;;;;;5103651;28;20429;-70
2023/10/22 10:01:37;;;;;;;8.48;4.20;;;12.30;99.90;;;;;;5103125;28;20477;-73
2023/10/22 10:04:05;;;;;;;8.48;4.20;;;12.30;99.90;;;;;;5104669;28;20056;-76
2023/10/22 10:06:31;;;;;;;9.73;4.55;;;12.40;99.90;;;;;;5102669;28;20031;-74
2023/10/22 10:08:59;;;;;;;7.22;3.85;;;12.40;99.90;;;;;;5103201;28;20039;-74
2023/10/22 10:11:26;;;;;;;10.65;4.03;;;12.50;99.90;;;;;;5104131;28;21003;-75
2023/10/22 10:13:52;;;;;;;7.40;4.32;;;12.50;99.90;;;;;;5103528;28;20716;-77
2023/10/22 10:16:22;;;;;;;8.27;4.72;;;12.60;99.90;;;;;;5105375;28;20079;-77
2023/10/22 10:19:02;;;;;;;9.27;4.97;;;12.70;99.90;;;;;;5104278;28;20031;-72
2023/10/22 10:21:33;;;;;;;7.45;4.68;;;12.60;99.90;;;;;;5104449;28;20020;-76
2023/10/22 10:24:17;;;;;;;8.52;4.45;;;12.60;99.90;;;;;;5104959;28;20036;-75
2023/10/22 10:26:46;;;;;;;5.07;4.00;;;12.60;99.90;;;;;;5101694;28;20028;-76
2023/10/22 10:29:19;;;;;;;10.40;4.10;;;12.70;99.90;;;;;;5102786;28;20134;-73
2023/10/22 10:31:53;;;;;;;8.02;4.45;;;12.70;99.90;;;;;;5103028;28;20032;-76
2023/10/22 10:34:40;;;;;;;16.08;7.25;;;12.70;99.90;;;;;;5103417;28;20608;-75
2023/10/22 10:37:18;;;;;;;10.70;6.00;;;12.70;99.90;;;;;;5102292;28;20024;-78
2023/10/22 10:39:51;;;;;;;6.00;3.20;;;12.70;99.90;;;;;;5104217;28;20035;-76
2023/10/22 10:42:28;;;;;;;9.68;4.10;;;12.70;99.90;;;;;;5104814;28;20018;-75
2023/10/22 10:44:57;;;;;;;6.13;2.70;;;12.70;99.90;;;;;;5102614;28;20032;-76
2023/10/22 10:47:27;;;;;;;9.98;3.38;;;12.80;99.90;;;;;;5101280;28;20484;-78
2023/10/22 10:50:07;;;;;;;9.10;3.80;;;12.80;99.90;;;;;;5102296;28;20048;-78
2023/10/22 10:52:45;;;;;;;13.65;3.60;;;12.80;99.90;;;;;;5103540;28;20077;-77
2023/10/22 10:55:32;;;;;;;11.82;4.50;;;12.90;99.90;;;;;;5101486;28;21143;-75
2023/10/22 10:58:00;;;;;;;7.30;3.22;;;13.00;99.90;;;;;;5102174;28;20039;-74
2023/10/22 11:00:30;;;;;;;5.15;2.88;;;13.00;99.90;;;;;;5103074;28;20765;-76
2023/10/22 11:02:59;;;;;;;5.57;2.83;;;13.10;99.90;;;;;;5103462;28;20387;-76
2023/10/22 11:05:40;;;;;;;6.30;3.20;;;13.20;99.90;;;;;;5102708;28;20098;-75
2023/10/22 11:08:15;;;;;;;4.53;2.60;;;13.20;99.90;;;;;;5103259;28;20020;-81
2023/10/22 11:10:41;;;;;;;9.60;3.42;;;13.30;99.90;;;;;;5102482;28;20058;-80
2023/10/22 11:13:08;;;;;;;6.70;2.80;;;13.30;99.90;;;;;;5103372;28;20024;-74
2023/10/22 11:15:36;;;;;;;5.20;2.80;;;13.40;99.90;;;;;;5101682;28;20031;-78
2023/10/22 11:18:03;;;;;;;8.73;3.17;;;13.50;99.90;;;;;;5103125;28;20023;-76
2023/10/22 11:20:30;;;;;;;6.35;2.60;;;13.60;99.90;;;;;;5102674;28;20083;-73
2023/10/22 11:22:56;;;;;;;6.82;2.50;;;13.70;99.90;;;;;;5102812;28;20038;-72
2023/10/22 11:25:23;;;;;;;5.57;2.00;;;13.80;99.90;;;;;;5100928;28;20121;-78
2023/10/22 11:27:49;;;;;;;5.60;2.28;;;13.90;99.90;;;;;;5101769;28;20020;-73
2023/10/22 11:30:40;;;;;;;4.13;1.83;;;14.00;99.90;;;;;;5102614;28;20023;-74
2023/10/22 11:33:07;;;;;;;3.90;2.10;;;14.20;99.90;;;;;;5102287;28;20084;-73
2023/10/22 11:35:33;;;;;;;4.50;1.80;;;14.30;99.90;;;;;;5100971;28;20046;-70
2023/10/22 11:37:59;;;;;;;8.63;1.90;;;14.50;99.90;;;;;;5098797;28;21520;-71
2023/10/22 11:40:28;;;;;;;4.60;1.52;;;14.60;99.90;;;;;;5102952;28;20050;-76
2023/10/22 11:43:03;;;;;;;6.82;1.35;;;14.70;99.90;;;;;;5100953;28;20057;-77
2023/10/22 11:45:34;;;;;;;9.88;1.75;;;14.90;99.90;;;;;;5101494;28;20047;-72
2023/10/22 11:48:13;;;;;;;6.05;1.73;;;15.10;99.90;;;;;;5102461;28;20028;-73
2023/10/22 11:50:43;;;;;;;3.67;1.70;;;15.00;99.90;;;;;;5100432;28;20035;-75
2023/10/22 11:53:09;;;;;;;6.68;1.83;;;14.90;99.90;;;;;;5100840;28;20024;-73
2023/10/22 11:55:34;;;;;;;8.50;2.22;;;14.70;99.90;;;;;;5101377;28;20046;-74
2023/10/22 11:58:00;;;;;;;5.50;1.27;;;14.50;99.90;;;;;;5102149;28;20028;-73
2023/10/22 12:00:25;;;;;;;4.93;1.60;;;14.30;99.90;;;;;;5100892;28;20020;-77
2023/10/22 12:02:51;;;;;;;3.90;1.30;;;14.20;99.90;;;;;;5100491;28;20122;-75
2023/10/22 12:05:17;;;;;;;2.72;1.20;;;14.00;99.90;;;;;;5100736;28;20043;-76
2023/10/22 12:07:42;;;;;;;2.92;1.17;;;13.90;99.90;;;;;;5100161;28;20073;-76
2023/10/22 12:10:10;;;;;;;1.42;0.80;;;13.80;99.90;;;;;;5100453;28;20055;-79
2023/10/22 12:12:35;;;;;;;3.63;1.10;;;13.70;99.90;;;;;;5101158;28;20080;-77
2023/10/22 12:15:01;;;;;;;3.97;1.30;;;13.70;99.90;;;;;;5099912;28;20063;-75
2023/10/22 12:17:27;;;;;;;2.95;1.13;;;13.70;99.90;;;;;;5100465;28;20020;-79
2023/10/22 12:19:52;;;;;;;4.88;1.50;;;13.70;99.90;;;;;;5100197;28;20016;-78
2023/10/22 12:22:19;;;;;;;7.47;1.85;;;13.70;99.90;;;;;;5101379;28;20102;-75
2023/10/22 12:24:45;;;;;;;12.45;6.00;;;13.70;99.90;;;;;;5101143;28;20036;-79
2023/10/22 12:27:11;;;;;;;3.40;1.63;;;13.70;99.90;;;;;;5103043;28;20028;-76
2023/10/22 12:29:36;;;;;;;9.15;2.65;;;13.80;99.90;;;;;;5100378;28;20020;-80
2023/10/22 12:32:04;;;;;;;4.75;1.63;;;13.80;99.90;;;;;;5100996;28;20032;-79
2023/10/22 12:34:31;;;;;;;4.50;1.92;;;13.90;99.90;;;;;;5100828;28;20043;-81
2023/10/22 12:36:57;;;;;;;3.38;1.50;;;14.00;99.90;;;;;;5099768;28;20044;-76
2023/10/22 12:39:23;;;;;;;4.57;1.63;;;14.00;99.90;;;;;;5098747;28;20085;-77
2023/10/22 12:41:49;;;;;;;6.93;2.20;;;14.00;99.90;;;;;;5101655;28;20393;-76
2023/10/22 12:44:14;;;;;;;12.90;5.03;;;14.00;99.90;;;;;;5099471;28;20035;-73
2023/10/22 12:46:40;;;;;;;6.32;3.20;;;14.00;99.90;;;;;;5099816;28;20036;-80
2023/10/22 12:49:05;;;;;;;3.92;1.38;;;14.00;99.90;;;;;;5100020;28;20031;-76